Time;durP1;ratioP1;P1;durP2;ratioP2;P2;SDS_P1;SDS_P2;PMS_P1;PMS_P2;Temp;Humidity;BMP_temperature;BMP_pressure;BME280_temperature;BME280_humidity;BME280_pressure;Samples;Min_cycle;Max_cycle;Signal;HPM_P1;HPM_P2
2021/12/18 00:00:12;;;;;;;;;49.00;40.00;;;;;;;;5053600;28;45913;-67
2021/12/18 00:02:37;;;;;;;;;40.00;36.50;;;;;;;;5053934;28;45294;-66
2021/12/18 00:05:02;;;;;;;;;41.00;37.50;;;;;;;;5037684;28;47418;-65
2021/12/18 00:07:27;;;;;;;;;39.00;36.25;;;;;;;;5054309;28;45449;-65
2021/12/18 00:09:53;;;;;;;;;39.25;34.25;;;;;;;;5052356;28;45335;-66
2021/12/18 00:12:19;;;;;;;;;38.25;34.50;;;;;;;;5030576;28;45711;-67
2021/12/18 00:14:44;;;;;;;;;37.75;35.50;;;;;;;;5054793;28;45437;-66
2021/12/18 00:17:10;;;;;;;;;38.00;34.75;;;;;;;;5055653;28;45461;-65
2021/12/18 00:19:35;;;;;;;;;31.75;29.25;;;;;;;;5037605;28;45631;-65
2021/12/18 00:22:01;;;;;;;;;36.25;31.75;;;;;;;;5038097;28;45418;-65
2021/12/18 00:24:26;;;;;;;;;36.75;31.00;;;;;;;;5055547;28;46418;-66
2021/12/18 00:26:51;;;;;;;;;38.25;36.00;;;;;;;;5054662;28;45365;-66
2021/12/18 00:29:17;;;;;;;;;32.75;25.75;;;;;;;;5056860;28;45805;-66
2021/12/18 00:31:42;;;;;;;;;32.50;31.25;;;;;;;;5037595;28;45728;-65
2021/12/18 00:34:07;;;;;;;;;40.00;35.50;;;;;;;;5056171;28;46552;-66
2021/12/18 00:36:33;;;;;;;;;47.25;34.50;;;;;;;;5055393;28;45472;-67
2021/12/18 00:38:58;;;;;;;;;37.75;34.50;;;;;;;;5036781;28;45272;-67
2021/12/18 00:41:36;;;;;;;;;29.50;25.00;;;;;;;;5055376;28;45378;-66
2021/12/18 00:44:02;;;;;;;;;37.00;34.75;;;;;;;;5055458;28;45892;-65
2021/12/18 00:46:29;;;;;;;;;38.00;35.25;;;;;;;;5037048;28;45465;-66
2021/12/18 00:48:54;;;;;;;;;36.75;33.75;;;;;;;;5037747;28;45420;-66
2021/12/18 00:51:20;;;;;;;;;44.50;36.75;;;;;;;;5055819;28;45268;-67
2021/12/18 00:53:45;;;;;;;;;35.25;31.25;;;;;;;;5037499;28;46233;-66
2021/12/18 00:56:10;;;;;;;;;31.75;30.25;;;;;;;;5038444;28;46024;-66
2021/12/18 00:58:35;;;;;;;;;37.50;34.00;;;;;;;;5055786;28;45311;-67
2021/12/18 01:01:06;;;;;;;;;34.25;31.75;;;;;;;;5055520;28;45381;-66
2021/12/18 01:03:31;;;;;;;;;31.25;29.50;;;;;;;;5054981;28;45646;-66
2021/12/18 01:05:57;;;;;;;;;33.00;31.25;;;;;;;;5062968;28;46660;-66
2021/12/18 01:08:22;;;;;;;;;37.00;34.50;;;;;;;;5048742;28;45384;-66
2021/12/18 01:13:18;;;;;;;;;34.00;31.50;;;;;;;;5046394;28;45692;-66
2021/12/18 01:15:49;;;;;;;;;39.00;30.50;;;;;;;;5054671;28;45237;-66
2021/12/18 01:23:42;;;;;;;;;29.25;27.00;;;;;;;;5047793;28;46066;-67
2021/12/18 01:26:07;;;;;;;;;36.00;29.75;;;;;;;;5057126;28;45435;-67
2021/12/18 01:28:32;;;;;;;;;38.50;33.75;;;;;;;;5039517;28;45420;-67
2021/12/18 01:30:58;;;;;;;;;36.50;28.25;;;;;;;;5035405;28;45748;-67
2021/12/18 01:33:23;;;;;;;;;30.25;28.00;;;;;;;;5063702;28;46672;-66
2021/12/18 01:35:49;;;;;;;;;32.50;30.00;;;;;;;;5038950;28;45479;-66
2021/12/18 01:38:15;;;;;;;;;37.00;33.50;;;;;;;;5063993;28;45492;-66
2021/12/18 01:40:40;;;;;;;;;23.00;21.50;;;;;;;;5055878;28;45506;-66
2021/12/18 01:53:54;;;;;;;;;29.00;25.25;;;;;;;;5057301;28;46562;-65
2021/12/18 01:56:20;;;;;;;;;32.25;31.75;;;;;;;;5047100;28;45396;-65
2021/12/18 01:58:45;;;;;;;;;28.50;27.50;;;;;;;;5054794;28;45499;-66
2021/12/18 02:01:12;;;;;;;;;33.25;28.00;;;;;;;;5057576;28;45824;-67
2021/12/18 02:03:38;;;;;;;;;38.25;28.75;;;;;;;;5064815;28;46910;-66
2021/12/18 02:06:03;;;;;;;;;31.75;25.25;;;;;;;;5054392;28;45512;-65
2021/12/18 02:08:29;;;;;;;;;27.25;27.25;;;;;;;;5058884;28;45483;-66
2021/12/18 02:11:09;;;;;;;;;29.50;27.50;;;;;;;;5038831;28;45478;-66
2021/12/18 02:14:00;;;;;;;;;28.50;27.00;;;;;;;;5057329;28;45880;-66
2021/12/18 02:21:50;;;;;;;;;27.00;25.25;;;;;;;;5063432;28;45556;-66
2021/12/18 02:24:16;;;;;;;;;30.25;26.50;;;;;;;;5053406;28;45791;-66
2021/12/18 02:26:41;;;;;;;;;30.75;29.50;;;;;;;;5055483;28;45556;-66
2021/12/18 02:29:10;;;;;;;;;33.50;30.50;;;;;;;;5038071;28;45515;-66
2021/12/18 02:31:35;;;;;;;;;35.50;32.75;;;;;;;;5057529;28;45438;-66
2021/12/18 02:34:02;;;;;;;;;26.25;23.00;;;;;;;;5061733;28;45568;-67
2021/12/18 02:36:28;;;;;;;;;34.00;29.50;;;;;;;;5034807;28;45303;-66
2021/12/18 02:43:51;;;;;;;;;33.50;30.75;;;;;;;;5056754;28;45828;-66
2021/12/18 02:46:19;;;;;;;;;32.75;30.00;;;;;;;;5074962;27;45505;-67
2021/12/18 02:48:45;;;;;;;;;34.75;33.00;;;;;;;;5054388;28;45398;-66
2021/12/18 02:51:11;;;;;;;;;29.25;29.00;;;;;;;;5062688;28;45511;-67
2021/12/18 02:53:37;;;;;;;;;37.75;32.25;;;;;;;;5040552;28;47891;-66
2021/12/18 02:56:05;;;;;;;;;35.50;34.25;;;;;;;;5037419;28;45735;-66
2021/12/18 02:58:31;;;;;;;;;30.75;28.00;;;;;;;;5057366;28;45543;-66
2021/12/18 03:00:57;;;;;;;;;37.25;28.50;;;;;;;;5035614;28;44840;-66
2021/12/18 03:03:27;;;;;;;;;36.50;32.25;;;;;;;;5064754;28;46541;-66
2021/12/18 03:06:06;;;;;;;;;29.75;25.00;;;;;;;;5053101;28;45423;-66
2021/12/18 03:25:11;;;;;;;;;35.75;29.00;;;;;;;;5009426;28;45857;-66
2021/12/18 03:27:37;;;;;;;;;30.75;28.00;;;;;;;;4993972;28;45501;-66
2021/12/18 03:30:03;;;;;;;;;31.75;28.00;;;;;;;;5010439;28;45287;-67
2021/12/18 03:32:28;;;;;;;;;22.50;21.00;;;;;;;;5014526;28;45375;-66
2021/12/18 03:34:53;;;;;;;;;5.50;2.50;;;;;;;;5009426;28;45803;-67
2021/12/18 03:37:19;;;;;;;;;27.50;24.75;;;;;;;;5010063;28;45523;-67
2021/12/18 03:39:45;;;;;;;;;27.75;26.00;;;;;;;;4996289;28;45801;-65
2021/12/18 03:42:10;;;;;;;;;29.75;29.25;;;;;;;;5013295;28;45509;-66
2021/12/18 03:44:36;;;;;;;;;32.75;30.50;;;;;;;;5013355;28;47624;-64
2021/12/18 03:47:02;;;;;;;;;27.75;27.00;;;;;;;;5009947;28;45450;-67
2021/12/18 03:49:27;;;;;;;;;28.50;26.50;;;;;;;;5041317;28;45800;-65
2021/12/18 03:51:52;;;;;;;;;31.50;29.50;;;;;;;;5066919;28;45389;-65
2021/12/18 03:54:18;;;;;;;;;24.25;24.25;;;;;;;;5037682;28;48636;-65
2021/12/18 03:56:43;;;;;;;;;22.50;21.00;;;;;;;;5048867;28;45502;-67
2021/12/18 03:59:09;;;;;;;;;37.00;28.75;;;;;;;;5058820;28;45472;-66
2021/12/18 04:01:34;;;;;;;;;25.75;24.75;;;;;;;;5041576;28;45299;-67
2021/12/18 04:03:59;;;;;;;;;35.50;32.00;;;;;;;;5079389;27;47505;-66
2021/12/18 04:06:25;;;;;;;;;27.00;25.00;;;;;;;;5037291;28;45531;-67
2021/12/18 04:08:50;;;;;;;;;26.25;24.75;;;;;;;;5065358;28;45217;-66
2021/12/18 04:11:15;;;;;;;;;28.25;28.00;;;;;;;;5058579;28;45570;-66
2021/12/18 04:13:44;;;;;;;;;30.25;27.50;;;;;;;;5042449;28;47428;-66
2021/12/18 04:16:10;;;;;;;;;23.75;22.50;;;;;;;;5038338;28;45616;-66
2021/12/18 04:18:35;;;;;;;;;35.75;32.25;;;;;;;;5056011;28;45450;-66
2021/12/18 04:21:01;;;;;;;;;35.25;32.00;;;;;;;;5044482;28;45478;-66
2021/12/18 04:23:26;;;;;;;;;29.25;27.50;;;;;;;;5042320;28;48440;-66
2021/12/18 04:25:51;;;;;;;;;33.50;29.50;;;;;;;;5044153;28;45387;-66
2021/12/18 04:28:16;;;;;;;;;34.75;30.25;;;;;;;;5061942;28;45596;-66
2021/12/18 04:30:42;;;;;;;;;28.00;28.00;;;;;;;;5036616;28;45562;-65
2021/12/18 04:33:07;;;;;;;;;31.75;28.50;;;;;;;;5065090;28;45687;-66
2021/12/18 04:35:32;;;;;;;;;35.50;29.00;;;;;;;;5061999;28;45295;-66
2021/12/18 04:37:57;;;;;;;;;34.50;29.75;;;;;;;;5060429;28;45480;-67
2021/12/18 04:40:25;;;;;;;;;35.75;30.50;;;;;;;;5076608;27;45458;-65
2021/12/18 04:42:51;;;;;;;;;32.25;30.50;;;;;;;;5053277;28;46006;-65
2021/12/18 04:45:16;;;;;;;;;33.00;32.00;;;;;;;;5065989;28;45437;-66
2021/12/18 04:47:42;;;;;;;;;29.75;27.75;;;;;;;;5060361;28;45366;-65
2021/12/18 04:50:07;;;;;;;;;24.75;19.75;;;;;;;;5061911;28;45345;-66
2021/12/18 04:52:32;;;;;;;;;39.25;34.75;;;;;;;;5058547;28;45498;-66
2021/12/18 04:54:58;;;;;;;;;31.75;28.75;;;;;;;;5054635;28;45379;-66
2021/12/18 04:57:23;;;;;;;;;30.00;26.75;;;;;;;;5066698;28;45411;-68
2021/12/18 04:59:48;;;;;;;;;38.50;34.25;;;;;;;;5058616;28;45197;-66
2021/12/18 05:02:18;;;;;;;;;32.75;28.75;;;;;;;;5063485;28;45521;-67
2021/12/18 05:04:43;;;;;;;;;30.25;30.25;;;;;;;;5057305;28;45374;-66
2021/12/18 05:07:10;;;;;;;;;38.50;28.50;;;;;;;;5056364;28;45344;-66
2021/12/18 05:09:36;;;;;;;;;30.50;27.25;;;;;;;;5053998;28;45493;-66
2021/12/18 05:12:01;;;;;;;;;30.75;29.00;;;;;;;;5053868;28;45521;-66
2021/12/18 05:14:26;;;;;;;;;32.00;29.00;;;;;;;;5038018;28;45360;-66
2021/12/18 05:16:52;;;;;;;;;48.50;35.75;;;;;;;;5053472;28;45448;-67
2021/12/18 05:19:17;;;;;;;;;32.25;32.25;;;;;;;;5069641;28;45500;-67
2021/12/18 05:21:42;;;;;;;;;33.00;29.75;;;;;;;;5054894;28;45589;-67
2021/12/18 05:24:07;;;;;;;;;37.25;35.75;;;;;;;;5036981;28;45908;-66
2021/12/18 05:26:33;;;;;;;;;35.25;32.50;;;;;;;;5053635;28;45115;-68
2021/12/18 05:28:58;;;;;;;;;35.50;31.50;;;;;;;;5055245;28;45445;-67
2021/12/18 05:31:23;;;;;;;;;27.25;25.75;;;;;;;;5054447;28;46167;-67
2021/12/18 05:33:52;;;;;;;;;35.25;31.50;;;;;;;;5036964;28;46123;-66
2021/12/18 05:36:33;;;;;;;;;36.00;32.00;;;;;;;;5055018;28;45575;-65
2021/12/18 05:39:03;;;;;;;;;38.50;35.00;;;;;;;;5046653;28;45357;-66
2021/12/18 05:41:29;;;;;;;;;30.25;29.00;;;;;;;;5051223;28;45787;-66
2021/12/18 05:43:54;;;;;;;;;30.00;26.25;;;;;;;;5053499;28;45469;-67
2021/12/18 05:46:19;;;;;;;;;32.75;30.50;;;;;;;;5036353;28;45462;-66
2021/12/18 05:48:44;;;;;;;;;29.25;29.25;;;;;;;;5054682;28;45341;-67
2021/12/18 05:51:10;;;;;;;;;34.75;30.75;;;;;;;;5053808;28;45960;-67
2021/12/18 05:53:35;;;;;;;;;31.50;27.00;;;;;;;;5037067;28;45409;-66
2021/12/18 05:56:00;;;;;;;;;28.25;27.50;;;;;;;;5054888;28;45298;-66
2021/12/18 05:58:25;;;;;;;;;28.50;23.75;;;;;;;;5054637;28;45314;-65
2021/12/18 06:00:50;;;;;;;;;29.25;24.75;;;;;;;;5054147;28;46144;-66
2021/12/18 06:03:16;;;;;;;;;32.50;32.50;;;;;;;;5054306;28;45536;-66
2021/12/18 06:05:41;;;;;;;;;34.00;31.25;;;;;;;;5054600;28;45212;-67
2021/12/18 06:08:10;;;;;;;;;34.25;29.50;;;;;;;;5054797;28;45356;-66
2021/12/18 06:10:37;;;;;;;;;29.25;26.25;;;;;;;;5053438;28;45824;-66
2021/12/18 06:13:03;;;;;;;;;30.75;29.50;;;;;;;;5053727;28;45794;-66
2021/12/18 06:15:29;;;;;;;;;29.50;23.50;;;;;;;;5056058;28;45722;-66
2021/12/18 06:17:55;;;;;;;;;33.25;27.25;;;;;;;;5037466;28;45635;-66
2021/12/18 06:20:20;;;;;;;;;26.75;25.75;;;;;;;;5054488;28;45739;-67
2021/12/18 06:22:46;;;;;;;;;24.00;22.50;;;;;;;;5053945;28;45615;-66
2021/12/18 06:25:11;;;;;;;;;30.75;29.50;;;;;;;;5054326;28;47811;-67
2021/12/18 06:27:36;;;;;;;;;32.50;26.50;;;;;;;;5051873;28;45389;-66
2021/12/18 06:30:02;;;;;;;;;36.00;33.75;;;;;;;;5035146;28;46360;-66
2021/12/18 06:32:27;;;;;;;;;29.00;27.50;;;;;;;;5054878;28;45307;-67
2021/12/18 06:34:52;;;;;;;;;30.00;28.00;;;;;;;;5035176;28;45444;-66
2021/12/18 06:37:18;;;;;;;;;27.00;25.75;;;;;;;;5053970;28;45331;-70
2021/12/18 06:39:43;;;;;;;;;30.00;28.75;;;;;;;;5035314;28;48292;-69
2021/12/18 06:42:08;;;;;;;;;31.25;27.75;;;;;;;;5054264;28;45474;-70
2021/12/18 06:44:33;;;;;;;;;36.75;27.25;;;;;;;;5052868;28;45295;-70
2021/12/18 06:46:58;;;;;;;;;23.50;21.00;;;;;;;;5054047;28;45238;-69
2021/12/18 06:49:24;;;;;;;;;18.75;17.75;;;;;;;;5053305;28;45679;-69
2021/12/18 06:51:49;;;;;;;;;28.75;26.50;;;;;;;;5035722;28;45551;-67
2021/12/18 06:54:14;;;;;;;;;26.75;24.50;;;;;;;;5054068;28;45402;-70
2021/12/18 06:56:40;;;;;;;;;29.25;25.75;;;;;;;;5032966;28;45605;-70
2021/12/18 06:59:05;;;;;;;;;30.25;30.25;;;;;;;;5053964;28;46366;-69
2021/12/18 07:01:30;;;;;;;;;31.50;25.00;;;;;;;;5052925;28;45306;-69
2021/12/18 07:03:55;;;;;;;;;31.50;26.50;;;;;;;;5053532;28;45436;-69
2021/12/18 07:06:21;;;;;;;;;30.00;18.00;;;;;;;;5054002;28;45341;-69
2021/12/18 07:08:46;;;;;;;;;29.50;29.00;;;;;;;;5053712;28;45559;-70
2021/12/18 07:11:11;;;;;;;;;23.50;23.50;;;;;;;;5035593;28;45528;-69
2021/12/18 07:13:36;;;;;;;;;30.25;30.25;;;;;;;;5053815;28;45533;-69
2021/12/18 07:16:02;;;;;;;;;26.50;23.75;;;;;;;;5053253;28;45449;-68
2021/12/18 07:18:27;;;;;;;;;32.25;30.00;;;;;;;;5034385;28;47844;-70
2021/12/18 07:20:52;;;;;;;;;35.25;28.00;;;;;;;;5033010;28;45493;-70
2021/12/18 07:23:18;;;;;;;;;36.50;32.25;;;;;;;;5040102;28;45844;-70
2021/12/18 07:25:43;;;;;;;;;29.00;25.00;;;;;;;;5036886;28;45433;-67
2021/12/18 07:28:08;;;;;;;;;31.25;30.25;;;;;;;;5031594;28;48562;-68
2021/12/18 07:30:33;;;;;;;;;27.50;27.50;;;;;;;;5053302;28;45423;-68
2021/12/18 07:32:58;;;;;;;;;27.50;24.25;;;;;;;;5035352;28;45484;-67
2021/12/18 07:35:24;;;;;;;;;33.00;28.75;;;;;;;;5035170;28;45596;-67
2021/12/18 07:37:49;;;;;;;;;29.75;29.50;;;;;;;;5033549;28;48485;-68
2021/12/18 07:40:14;;;;;;;;;27.50;24.25;;;;;;;;5035226;28;45464;-67
2021/12/18 07:42:40;;;;;;;;;39.00;28.75;;;;;;;;5052507;28;45436;-68
2021/12/18 07:45:06;;;;;;;;;25.50;24.75;;;;;;;;5035055;28;45454;-67
2021/12/18 07:47:31;;;;;;;;;28.25;26.00;;;;;;;;5034941;28;47695;-68
2021/12/18 07:49:57;;;;;;;;;27.25;24.00;;;;;;;;5034404;28;46193;-68
2021/12/18 07:52:22;;;;;;;;;30.75;27.50;;;;;;;;5034792;28;45370;-67
2021/12/18 07:54:47;;;;;;;;;33.25;27.50;;;;;;;;5033852;28;45473;-68
2021/12/18 07:57:12;;;;;;;;;31.25;30.50;;;;;;;;5053880;28;45376;-67
2021/12/18 07:59:38;;;;;;;;;28.25;28.25;;;;;;;;5056640;28;45412;-68
2021/12/18 08:02:04;;;;;;;;;33.50;30.00;;;;;;;;5056774;28;45362;-67
2021/12/18 08:04:30;;;;;;;;;30.75;29.75;;;;;;;;5056152;28;45601;-67
2021/12/18 08:06:55;;;;;;;;;31.75;31.75;;;;;;;;5055703;28;46466;-67
2021/12/18 08:09:21;;;;;;;;;43.00;35.25;;;;;;;;5071347;28;45429;-68
2021/12/18 08:11:46;;;;;;;;;44.50;38.25;;;;;;;;5038026;28;45349;-67
2021/12/18 08:14:11;;;;;;;;;52.00;40.75;;;;;;;;5056620;28;45887;-67
2021/12/18 08:16:36;;;;;;;;;39.25;34.00;;;;;;;;5055535;28;46449;-69
2021/12/18 08:19:01;;;;;;;;;33.25;32.50;;;;;;;;5056225;28;45503;-70
2021/12/18 08:21:27;;;;;;;;;29.50;26.25;;;;;;;;5055799;28;45535;-69
2021/12/18 08:23:52;;;;;;;;;29.00;28.00;;;;;;;;5056028;28;45539;-68
2021/12/18 08:26:17;;;;;;;;;31.50;28.75;;;;;;;;5052656;28;45477;-67
2021/12/18 08:28:42;;;;;;;;;30.75;28.00;;;;;;;;5037760;28;45647;-67
2021/12/18 08:31:07;;;;;;;;;24.50;24.25;;;;;;;;5055467;28;45413;-69
2021/12/18 08:33:33;;;;;;;;;29.50;26.25;;;;;;;;5055747;28;45742;-68
2021/12/18 08:35:58;;;;;;;;;27.00;26.50;;;;;;;;5055762;28;46023;-67
2021/12/18 08:38:23;;;;;;;;;29.50;26.50;;;;;;;;5056720;28;45429;-68
2021/12/18 08:40:50;;;;;;;;;30.25;28.00;;;;;;;;5055626;28;45427;-67
2021/12/18 08:43:15;;;;;;;;;29.25;25.50;;;;;;;;5055375;28;45415;-67
2021/12/18 08:45:40;;;;;;;;;26.00;25.75;;;;;;;;5055224;28;45487;-67
2021/12/18 08:48:06;;;;;;;;;32.25;27.50;;;;;;;;5055699;28;45499;-68
2021/12/18 08:50:34;;;;;;;;;32.50;30.75;;;;;;;;5038205;28;45596;-68
2021/12/18 08:52:59;;;;;;;;;23.50;20.75;;;;;;;;5052366;28;45310;-68
2021/12/18 08:55:25;;;;;;;;;35.00;29.75;;;;;;;;5054346;28;45564;-67
2021/12/18 08:57:50;;;;;;;;;30.75;29.00;;;;;;;;5036869;28;45299;-67
2021/12/18 09:00:17;;;;;;;;;29.25;28.00;;;;;;;;5055037;28;45319;-67
2021/12/18 09:02:42;;;;;;;;;24.00;20.75;;;;;;;;5055476;28;45491;-67
2021/12/18 09:05:08;;;;;;;;;24.25;23.00;;;;;;;;5055674;28;45282;-67
2021/12/18 09:07:33;;;;;;;;;32.00;28.75;;;;;;;;5054185;28;45512;-67
2021/12/18 09:09:58;;;;;;;;;26.25;24.25;;;;;;;;5055382;28;45311;-66
2021/12/18 09:12:25;;;;;;;;;22.50;21.00;;;;;;;;5055709;28;45410;-67
2021/12/18 09:14:51;;;;;;;;;25.00;19.75;;;;;;;;5036812;28;47736;-68
2021/12/18 09:17:16;;;;;;;;;26.75;25.50;;;;;;;;5037545;28;45376;-68
2021/12/18 09:19:41;;;;;;;;;30.00;25.25;;;;;;;;5055318;28;45385;-67
2021/12/18 09:22:06;;;;;;;;;26.75;25.25;;;;;;;;5074307;27;45579;-68
2021/12/18 09:24:32;;;;;;;;;26.00;26.00;;;;;;;;5055375;28;46637;-68
2021/12/18 09:26:57;;;;;;;;;27.00;24.75;;;;;;;;5043540;28;45498;-68
2021/12/18 09:29:22;;;;;;;;;21.25;20.75;;;;;;;;5054938;28;45264;-71
2021/12/18 09:31:47;;;;;;;;;22.75;22.75;;;;;;;;5036873;28;45644;-67
2021/12/18 09:34:13;;;;;;;;;33.25;25.50;;;;;;;;5055038;28;46459;-68
2021/12/18 09:36:38;;;;;;;;;22.75;20.00;;;;;;;;5035685;28;46196;-66
2021/12/18 09:39:04;;;;;;;;;28.50;25.50;;;;;;;;5046135;28;45361;-67
2021/12/18 09:41:29;;;;;;;;;24.00;23.00;;;;;;;;5034073;28;45554;-67
2021/12/18 09:43:54;;;;;;;;;25.00;23.00;;;;;;;;5046693;28;45515;-67
2021/12/18 09:46:20;;;;;;;;;24.75;22.50;;;;;;;;5043920;28;45382;-70
2021/12/18 09:48:45;;;;;;;;;30.50;27.25;;;;;;;;5053672;28;45283;-68
2021/12/18 09:51:21;;;;;;;;;23.50;22.00;;;;;;;;5043374;28;45502;-68
2021/12/18 09:53:47;;;;;;;;;23.25;23.25;;;;;;;;5043883;28;47930;-68
2021/12/18 09:56:12;;;;;;;;;29.50;28.75;;;;;;;;5055185;28;45521;-67
2021/12/18 09:58:37;;;;;;;;;30.75;29.00;;;;;;;;5047942;28;45490;-66
2021/12/18 10:01:03;;;;;;;;;27.00;24.00;;;;;;;;5046279;28;45349;-67
2021/12/18 10:03:48;;;;;;;;;22.75;22.25;;;;;;;;5053266;28;45654;-68
2021/12/18 10:06:29;;;;;;;;;23.50;23.25;;;;;;;;5040688;28;45339;-68
2021/12/18 10:08:55;;;;;;;;;32.25;25.00;;;;;;;;5025891;28;45437;-69
2021/12/18 10:11:20;;;;;;;;;25.00;24.50;;;;;;;;5043336;28;45362;-68
2021/12/18 10:13:49;;;;;;;;;28.75;26.75;;;;;;;;5034675;28;49144;-70
2021/12/18 10:16:14;;;;;;;;;25.00;25.00;;;;;;;;5050913;28;45436;-69
2021/12/18 10:18:40;;;;;;;;;25.50;25.50;;;;;;;;5024842;28;45345;-68
2021/12/18 10:21:09;;;;;;;;;23.50;21.25;;;;;;;;5050296;28;45385;-68
2021/12/18 10:23:35;;;;;;;;;23.00;22.25;;;;;;;;5047499;28;46309;-68
2021/12/18 10:26:00;;;;;;;;;26.50;26.50;;;;;;;;5053131;28;45528;-66
2021/12/18 10:28:41;;;;;;;;;29.25;28.75;;;;;;;;5036205;28;45442;-66
2021/12/18 10:31:06;;;;;;;;;23.25;21.75;;;;;;;;5054146;28;45715;-66
2021/12/18 10:33:33;;;;;;;;;27.00;26.75;;;;;;;;5035777;28;47365;-65
2021/12/18 10:35:59;;;;;;;;;27.00;25.75;;;;;;;;5050769;28;45289;-65
2021/12/18 10:38:50;;;;;;;;;24.25;23.25;;;;;;;;5051020;28;45821;-64
2021/12/18 10:41:18;;;;;;;;;27.25;25.50;;;;;;;;5034226;28;45476;-66
2021/12/18 10:43:57;;;;;;;;;29.25;27.75;;;;;;;;5052005;28;45366;-65
2021/12/18 10:46:23;;;;;;;;;27.75;24.25;;;;;;;;5053908;28;45350;-65
2021/12/18 10:48:59;;;;;;;;;27.00;23.75;;;;;;;;5035957;28;45558;-65
2021/12/18 10:51:25;;;;;;;;;29.00;29.00;;;;;;;;5035672;28;45452;-65
2021/12/18 10:53:50;;;;;;;;;21.50;21.25;;;;;;;;5052450;28;45830;-66
2021/12/18 10:56:16;;;;;;;;;26.00;25.25;;;;;;;;5035564;28;46361;-65
2021/12/18 10:58:41;;;;;;;;;21.75;21.75;;;;;;;;5053521;28;45818;-66
2021/12/18 11:01:06;;;;;;;;;28.00;26.75;;;;;;;;5053742;28;45407;-66
2021/12/18 11:03:33;;;;;;;;;24.75;24.00;;;;;;;;5053732;28;45499;-66
2021/12/18 11:06:05;;;;;;;;;26.50;25.25;;;;;;;;5038061;28;45375;-65
2021/12/18 11:08:30;;;;;;;;;24.75;23.25;;;;;;;;5050653;28;45365;-65
2021/12/18 11:13:38;;;;;;;;;27.75;26.00;;;;;;;;5053326;28;45494;-68
2021/12/18 11:13:51;;;;;;;;;24.50;23.75;;;;;;;;5053228;28;45594;-68
2021/12/18 11:16:17;;;;;;;;;26.00;23.50;;;;;;;;5053758;28;45309;-68
2021/12/18 11:18:42;;;;;;;;;21.75;20.25;;;;;;;;5053987;28;45377;-68
2021/12/18 11:21:08;;;;;;;;;27.25;24.50;;;;;;;;5053626;28;45371;-67
2021/12/18 11:23:53;;;;;;;;;24.75;22.25;;;;;;;;5041939;28;46421;-69
2021/12/18 11:26:21;;;;;;;;;33.25;31.25;;;;;;;;5048013;28;45618;-68
2021/12/18 11:28:49;;;;;;;;;21.00;19.50;;;;;;;;5034959;28;45395;-68
2021/12/18 11:31:15;;;;;;;;;26.75;25.75;;;;;;;;5053556;28;45512;-67
2021/12/18 11:33:40;;;;;;;;;21.25;20.25;;;;;;;;5037983;28;48772;-70
2021/12/18 11:36:07;;;;;;;;;22.00;22.00;;;;;;;;5056688;28;45517;-69
2021/12/18 11:38:33;;;;;;;;;19.00;19.00;;;;;;;;5055893;28;45349;-68
2021/12/18 11:40:59;;;;;;;;;25.50;22.75;;;;;;;;5057363;28;45425;-67
2021/12/18 11:43:36;;;;;;;;;29.25;26.00;;;;;;;;5056486;28;45478;-67
2021/12/18 11:46:02;;;;;;;;;22.75;22.25;;;;;;;;5056676;28;45578;-69
2021/12/18 11:48:47;;;;;;;;;27.50;24.00;;;;;;;;5034615;28;45477;-66
2021/12/18 11:51:13;;;;;;;;;23.50;22.25;;;;;;;;5040432;28;45494;-67
2021/12/18 11:53:40;;;;;;;;;23.75;21.25;;;;;;;;5036679;28;47255;-66
2021/12/18 11:56:05;;;;;;;;;19.00;19.00;;;;;;;;5054529;28;45489;-67
2021/12/18 11:58:35;;;;;;;;;23.25;22.50;;;;;;;;5054636;28;45520;-67
2021/12/18 12:01:04;;;;;;;;;17.00;17.00;;;;;;;;5055620;28;45594;-67
2021/12/18 12:03:33;;;;;;;;;27.75;21.75;;;;;;;;5055516;28;46783;-68
2021/12/18 12:05:59;;;;;;;;;25.50;25.25;;;;;;;;5055906;28;45543;-66
2021/12/18 12:08:30;;;;;;;;;23.50;22.00;;;;;;;;5056809;28;45380;-65
2021/12/18 12:11:16;;;;;;;;;29.25;29.25;;;;;;;;5055906;28;45374;-69
2021/12/18 12:13:51;;;;;;;;;24.75;23.75;;;;;;;;5055409;28;46341;-68
2021/12/18 12:16:16;;;;;;;;;22.50;20.25;;;;;;;;5056060;28;45465;-67
2021/12/18 12:19:02;;;;;;;;;23.75;21.00;;;;;;;;5055125;28;45400;-67
2021/12/18 12:21:41;;;;;;;;;21.50;21.50;;;;;;;;5037459;28;45454;-67
2021/12/18 12:24:08;;;;;;;;;18.50;17.00;;;;;;;;5058765;28;47668;-67
2021/12/18 12:26:33;;;;;;;;;23.25;20.75;;;;;;;;5047694;28;45382;-67
2021/12/18 12:28:58;;;;;;;;;25.00;23.75;;;;;;;;5054202;28;45524;-67
2021/12/18 12:31:24;;;;;;;;;24.75;22.25;;;;;;;;5055243;28;45428;-68
2021/12/18 12:33:50;;;;;;;;;27.25;22.75;;;;;;;;5056117;28;46524;-67
2021/12/18 12:36:23;;;;;;;;;27.75;24.75;;;;;;;;5055396;28;45792;-68
2021/12/18 12:38:51;;;;;;;;;21.25;19.00;;;;;;;;5055537;28;45578;-68
2021/12/18 12:41:57;;;;;;;;;23.25;23.00;;;;;;;;5052415;28;45529;-67
2021/12/18 12:44:24;;;;;;;;;25.25;22.25;;;;;;;;4970082;28;46337;-68
2021/12/18 12:47:09;;;;;;;;;22.75;21.50;;;;;;;;4958788;28;45657;-68
2021/12/18 12:49:35;;;;;;;;;15.00;13.75;;;;;;;;4975308;28;45497;-68
2021/12/18 12:52:01;;;;;;;;;21.50;21.50;;;;;;;;4975160;28;45452;-67
2021/12/18 12:54:38;;;;;;;;;23.75;23.00;;;;;;;;4975319;28;46483;-66
2021/12/18 12:57:21;;;;;;;;;28.50;23.25;;;;;;;;4991416;28;46365;-67
2021/12/18 12:59:46;;;;;;;;;21.25;17.25;;;;;;;;4975610;28;45407;-67
2021/12/18 13:02:13;;;;;;;;;21.50;19.25;;;;;;;;4974534;28;45371;-66
2021/12/18 13:04:38;;;;;;;;;21.75;21.00;;;;;;;;4958934;28;47843;-67
2021/12/18 13:07:05;;;;;;;;;22.25;21.50;;;;;;;;4973956;28;45561;-67
2021/12/18 13:09:30;;;;;;;;;21.25;20.25;;;;;;;;4975399;28;45454;-67
2021/12/18 13:12:02;;;;;;;;;22.75;20.00;;;;;;;;4974611;28;45487;-66
2021/12/18 13:14:41;;;;;;;;;20.50;20.00;;;;;;;;4992901;28;46871;-66
2021/12/18 13:17:20;;;;;;;;;20.00;18.50;;;;;;;;5050852;28;45591;-66
2021/12/18 13:19:55;;;;;;;;;15.75;15.50;;;;;;;;5053971;28;45407;-67
2021/12/18 13:22:27;;;;;;;;;18.75;17.50;;;;;;;;5055107;28;45349;-68
2021/12/18 13:25:20;;;;;;;;;22.00;18.75;;;;;;;;5055034;28;45804;-68
2021/12/18 13:28:01;;;;;;;;;21.25;19.50;;;;;;;;5035306;28;45497;-67
2021/12/18 13:30:26;;;;;;;;;28.25;22.25;;;;;;;;5037311;28;45668;-68
2021/12/18 13:32:59;;;;;;;;;24.25;23.00;;;;;;;;5036943;28;45480;-67
2021/12/18 13:35:26;;;;;;;;;21.75;20.00;;;;;;;;5037294;28;46838;-68
2021/12/18 13:38:04;;;;;;;;;20.50;17.50;;;;;;;;5054698;28;45402;-67
2021/12/18 13:40:32;;;;;;;;;21.75;18.25;;;;;;;;5055013;28;45432;-68
2021/12/18 13:43:09;;;;;;;;;23.25;20.75;;;;;;;;5052703;28;45465;-67
2021/12/18 13:45:47;;;;;;;;;14.50;14.50;;;;;;;;5053651;28;46329;-67
2021/12/18 13:48:12;;;;;;;;;19.00;16.75;;;;;;;;5039171;28;46563;-67
2021/12/18 13:50:37;;;;;;;;;17.75;16.00;;;;;;;;5054831;28;45324;-66
2021/12/18 13:53:05;;;;;;;;;20.25;18.75;;;;;;;;5055504;28;45172;-68
2021/12/18 13:55:30;;;;;;;;;15.50;15.50;;;;;;;;5054425;28;45643;-66
2021/12/18 13:57:59;;;;;;;;;17.50;17.50;;;;;;;;5054324;28;45365;-67
2021/12/18 14:00:24;;;;;;;;;16.50;15.25;;;;;;;;5055000;28;45407;-66
2021/12/18 14:02:50;;;;;;;;;16.25;14.50;;;;;;;;5036335;28;45434;-67
2021/12/18 14:05:15;;;;;;;;;19.75;18.75;;;;;;;;5049358;28;46299;-67
2021/12/18 14:07:42;;;;;;;;;19.00;16.00;;;;;;;;5076110;27;45978;-66
2021/12/18 14:10:08;;;;;;;;;21.00;20.75;;;;;;;;5076691;27;45608;-67
2021/12/18 14:12:34;;;;;;;;;21.25;20.25;;;;;;;;5041581;28;45507;-66
2021/12/18 14:15:00;;;;;;;;;21.25;21.25;;;;;;;;5048734;28;48666;-66
2021/12/18 14:17:25;;;;;;;;;19.00;17.75;;;;;;;;5058936;28;45433;-68
2021/12/18 14:19:53;;;;;;;;;17.00;17.00;;;;;;;;5058373;28;45675;-67
2021/12/18 14:22:24;;;;;;;;;18.00;14.50;;;;;;;;5040975;28;45420;-66
2021/12/18 14:25:03;;;;;;;;;19.50;18.75;;;;;;;;5038847;28;47768;-66
2021/12/18 14:27:38;;;;;;;;;14.00;13.50;;;;;;;;5040904;27;45468;-66
2021/12/18 14:30:10;;;;;;;;;16.25;15.25;;;;;;;;5045207;28;45559;-67
2021/12/18 14:32:35;;;;;;;;;17.25;17.25;;;;;;;;5065589;28;45404;-66
2021/12/18 14:35:03;;;;;;;;;17.25;14.75;;;;;;;;5051916;28;45672;-67
2021/12/18 14:37:28;;;;;;;;;15.75;14.00;;;;;;;;5047650;28;45430;-66
2021/12/18 14:39:55;;;;;;;;;19.75;18.50;;;;;;;;5068335;27;45536;-67
2021/12/18 14:42:35;;;;;;;;;15.25;14.50;;;;;;;;5048504;28;45412;-66
2021/12/18 14:45:10;;;;;;;;;18.75;17.25;;;;;;;;5029475;28;47658;-66
2021/12/18 14:47:41;;;;;;;;;16.25;15.75;;;;;;;;5064680;28;45307;-68
2021/12/18 14:50:30;;;;;;;;;19.00;18.25;;;;;;;;5056048;28;45429;-67
2021/12/18 14:53:00;;;;;;;;;17.50;17.00;;;;;;;;5053051;28;45378;-67
2021/12/18 14:55:28;;;;;;;;;19.50;18.00;;;;;;;;5055684;28;46020;-67
2021/12/18 14:57:58;;;;;;;;;14.75;14.00;;;;;;;;5056183;28;45446;-67
2021/12/18 15:00:25;;;;;;;;;14.50;14.00;;;;;;;;5066012;28;45350;-65
2021/12/18 15:02:53;;;;;;;;;20.00;17.50;;;;;;;;5037313;28;45582;-66